createdAt,value
2023-02-22T00:03:25.543Z,101053.84
2023-02-22T00:08:19.479Z,101058.06
2023-02-22T00:13:16.153Z,101068.25
2023-02-22T00:18:10.548Z,101081.50
2023-02-22T00:23:07.672Z,101051.97
2023-02-22T00:28:00.681Z,101046.00
2023-02-22T00:32:54.732Z,101064.72
2023-02-22T00:37:52.059Z,101064.03
2023-02-22T00:42:44.937Z,101042.56
2023-02-22T00:47:39.530Z,101039.16
2023-02-22T00:52:32.115Z,101046.78
2023-02-22T00:57:25.828Z,101057.19
2023-02-22T01:02:18.987Z,101063.44
2023-02-22T01:07:14.143Z,101033.38
2023-02-22T01:12:06.429Z,101043.59
2023-02-22T01:16:58.987Z,101033.47
2023-02-22T01:21:52.325Z,101034.31
2023-02-22T01:26:46.309Z,101048.00
2023-02-22T01:31:40.754Z,101045.44
2023-02-22T01:36:33.897Z,101032.19
2023-02-22T01:41:27.905Z,101002.78
2023-02-22T01:46:22.954Z,101027.59
2023-02-22T01:51:20.329Z,100992.19
2023-02-22T01:56:13.942Z,101022.25
2023-02-22T02:01:07.718Z,101006.25
2023-02-22T02:06:02.983Z,101003.31
2023-02-22T02:11:02.671Z,100985.69
2023-02-22T02:15:56.091Z,100980.56
2023-02-22T02:20:57.142Z,101003.69
2023-02-22T02:26:17.584Z,100995.81
2023-02-22T02:31:19.301Z,100994.88
2023-02-22T02:36:29.969Z,100988.63
2023-02-22T02:41:34.341Z,100985.13
2023-02-22T02:46:39.844Z,100982.88
2023-02-22T02:51:40.341Z,100984.16
2023-02-22T02:56:33.388Z,101005.13
2023-02-22T03:01:29.517Z,101003.34
2023-02-22T03:06:21.497Z,100995.53
2023-02-22T03:11:18.919Z,100977.94
2023-02-22T03:16:44.639Z,100992.84
2023-02-22T03:22:11.284Z,100979.75
2023-02-22T03:27:28.182Z,100978.03
2023-02-22T03:32:28.544Z,100992.13
2023-02-22T03:37:26.953Z,100980.78
2023-02-22T03:42:35.985Z,100972.97
2023-02-22T03:47:43.915Z,100987.25
2023-02-22T03:52:44.472Z,100994.09
2023-02-22T03:57:46.570Z,100993.31
2023-02-22T04:02:39.909Z,100989.91
2023-02-22T04:07:35.145Z,100996.91
2023-02-22T04:12:28.305Z,100992.59
2023-02-22T04:17:29.413Z,100970.56
2023-02-22T04:22:22.724Z,100996.19
2023-02-22T04:27:16.587Z,100983.13
2023-02-22T04:32:09.457Z,100989.28
2023-02-22T04:37:04.048Z,100974.50
2023-02-22T04:41:57.848Z,100978.78
2023-02-22T04:46:50.665Z,100980.75
2023-02-22T04:51:44.315Z,100966.56
2023-02-22T04:56:38.605Z,100974.41
2023-02-22T05:01:35.941Z,100964.84
2023-02-22T05:06:30.169Z,100977.75
2023-02-22T05:11:23.498Z,100951.66
2023-02-22T05:16:17.345Z,100973.22
2023-02-22T05:21:10.704Z,100961.00
2023-02-22T05:26:04.275Z,100946.72
2023-02-22T05:30:57.562Z,100964.41
2023-02-22T05:35:51.289Z,100958.41
2023-02-22T05:40:44.757Z,100926.88
2023-02-22T05:45:37.541Z,100943.03
2023-02-22T05:50:30.727Z,100979.47
2023-02-22T05:55:25.049Z,100974.94
2023-02-22T06:00:29.132Z,100945.09
2023-02-22T06:05:21.437Z,100968.50
2023-02-22T06:10:15.118Z,100965.94
2023-02-22T06:15:09.013Z,100973.91
2023-02-22T06:20:02.403Z,100993.31
2023-02-22T06:24:55.131Z,100983.72
2023-02-22T06:29:48.269Z,100984.28
2023-02-22T06:34:42.035Z,100976.66
2023-02-22T06:39:34.984Z,100997.53
2023-02-22T06:44:28.478Z,101003.47
2023-02-22T06:49:21.717Z,101027.31
2023-02-22T06:54:14.857Z,101023.47
2023-02-22T06:59:08.997Z,101014.19
2023-02-22T07:04:02.300Z,100987.19
2023-02-22T07:08:55.714Z,101033.03
2023-02-22T07:13:49.069Z,101021.91
2023-02-22T07:18:42.478Z,101006.41
2023-02-22T07:23:34.727Z,101029.97
2023-02-22T07:28:28.658Z,101026.38
2023-02-22T07:33:22.604Z,100996.13
2023-02-22T07:38:17.288Z,101029.97
2023-02-22T07:43:19.908Z,100992.69
2023-02-22T07:48:12.642Z,100976.63
2023-02-22T07:53:08.072Z,101020.31
2023-02-22T07:58:03.598Z,101015.19
2023-02-22T08:02:57.545Z,101003.88
2023-02-22T08:07:50.529Z,100993.72
2023-02-22T08:12:43.121Z,101014.31
2023-02-22T08:17:36.940Z,100978.25
2023-02-22T08:22:30.628Z,100979.84
2023-02-22T08:27:26.225Z,100995.94
2023-02-22T08:32:19.086Z,100992.59
2023-02-22T08:37:11.361Z,100996.81
2023-02-22T08:42:04.222Z,100988.88
2023-02-22T08:46:57.202Z,100993.22
2023-02-22T08:51:51.407Z,100956.28
2023-02-22T08:56:45.957Z,100988.47
2023-02-22T09:01:39.734Z,100969.41
2023-02-22T09:06:32.887Z,100977.09
2023-02-22T09:11:25.538Z,100991.41
2023-02-22T09:16:18.908Z,100968.28
2023-02-22T09:21:12.557Z,101002.00
2023-02-22T09:26:08.611Z,100980.72
2023-02-22T09:31:02.141Z,100992.00
2023-02-22T09:35:55.322Z,100972.41
2023-02-22T09:40:51.165Z,100970.44
2023-02-22T09:45:58.457Z,100983.94
2023-02-22T09:50:58.489Z,100945.41
2023-02-22T09:55:53.497Z,100979.59
2023-02-22T10:00:50.308Z,100967.47
2023-02-22T10:05:50.061Z,100973.28
2023-02-22T10:10:47.908Z,100952.63
2023-02-22T10:15:51.920Z,100979.44
2023-02-22T10:21:03.444Z,100944.84
2023-02-22T10:26:16.774Z,100972.38
2023-02-22T10:31:20.967Z,100954.13
2023-02-22T10:36:21.804Z,100973.03
2023-02-22T10:41:26.674Z,100969.97
2023-02-22T10:46:22.870Z,100960.13
2023-02-22T10:51:15.886Z,100957.22
2023-02-22T10:56:28.091Z,100958.00
2023-02-22T11:01:32.285Z,100946.63
2023-02-22T11:06:24.536Z,100946.72
2023-02-22T11:11:26.357Z,100941.41
2023-02-22T11:16:33.249Z,100933.47
2023-02-22T11:21:26.437Z,100900.59
2023-02-22T11:26:20.738Z,100922.97
2023-02-22T11:31:21.621Z,100913.31
2023-02-22T11:36:43.218Z,100903.56
2023-02-22T11:41:36.205Z,100909.06
2023-02-22T11:46:35.866Z,100884.25
2023-02-22T11:51:31.933Z,100881.69
2023-02-22T11:56:38.445Z,100887.88
2023-02-22T12:02:22.837Z,100863.25
2023-02-22T12:07:53.488Z,100859.69
2023-02-22T12:13:04.696Z,100857.88
2023-02-22T12:18:07.758Z,100860.50
2023-02-22T12:23:07.846Z,100850.09
2023-02-22T12:28:25.082Z,100851.91
2023-02-22T12:33:27.711Z,100848.81
2023-02-22T12:38:34.224Z,100820.88
2023-02-22T12:43:52.286Z,100820.22
2023-02-22T12:48:53.130Z,100841.56
2023-02-22T12:54:02.322Z,100839.69
2023-02-22T12:59:09.574Z,100843.16
2023-02-22T13:04:19.518Z,100787.16
2023-02-22T13:09:34.737Z,100826.44
2023-02-22T13:14:36.333Z,100791.75
2023-02-22T13:19:51.621Z,100829.91
2023-02-22T13:24:53.368Z,100813.88
2023-02-22T13:29:50.221Z,100811.13
2023-02-22T13:35:03.806Z,100804.97
2023-02-22T13:40:28.373Z,100796.25
2023-02-22T13:45:33.300Z,100794.38
2023-02-22T13:50:26.070Z,100788.16
2023-02-22T13:55:26.609Z,100792.47
2023-02-22T14:00:21.035Z,100789.09
2023-02-22T14:05:36.297Z,100789.91
2023-02-22T14:10:38.714Z,100788.22
2023-02-22T14:15:31.389Z,100767.56
2023-02-22T14:20:38.579Z,100785.56
2023-02-22T14:25:43.354Z,100783.97
2023-02-22T14:30:39.053Z,100782.91
2023-02-22T14:35:49.915Z,100777.72
2023-02-22T14:40:45.641Z,100778.56
2023-02-22T14:45:46.115Z,100776.84
2023-02-22T14:50:41.974Z,100766.19
2023-02-22T14:55:42.809Z,100766.09
2023-02-22T15:00:46.167Z,100766.19
2023-02-22T15:05:41.875Z,100741.19
2023-02-22T15:10:46.388Z,100741.94
2023-02-22T15:15:49.212Z,100760.88
2023-02-22T15:20:43.494Z,100734.34
2023-02-22T15:25:42.410Z,100763.59
2023-02-22T15:30:35.355Z,100719.25
2023-02-22T15:35:33.694Z,100745.59
2023-02-22T15:40:33.535Z,100739.38
2023-02-22T15:45:26.908Z,100748.69
2023-02-22T15:50:37.560Z,100710.22
2023-02-22T15:55:33.166Z,100758.25
2023-02-22T16:01:01.893Z,100751.13
2023-02-22T16:05:57.348Z,100737.13
2023-02-22T16:11:05.925Z,100743.13
2023-02-22T16:16:02.228Z,100702.16
2023-02-22T16:21:22.248Z,100755.38
2023-02-22T16:26:34.781Z,100726.19
2023-02-22T16:31:39.680Z,100734.03
2023-02-22T16:36:45.572Z,100738.22
2023-02-22T16:41:42.237Z,100736.22
2023-02-22T16:46:36.159Z,100701.09
2023-02-22T16:51:33.072Z,100722.88
2023-02-22T16:56:31.192Z,100746.56
2023-02-22T17:01:24.593Z,100726.00
2023-02-22T17:06:18.020Z,100766.97
2023-02-22T17:11:12.873Z,100742.97
2023-02-22T17:16:06.819Z,100721.94
2023-02-22T17:21:00.577Z,100744.22
2023-02-22T17:25:56.126Z,100773.53
2023-02-22T17:30:49.551Z,100781.59
2023-02-22T17:35:43.592Z,100779.03
2023-02-22T17:40:39.294Z,100768.69
2023-02-22T17:45:33.436Z,100765.28
2023-02-22T17:50:27.477Z,100759.97
2023-02-22T17:55:22.007Z,100717.66
2023-02-22T18:00:24.077Z,100759.97
2023-02-22T18:05:17.408Z,100769.94
2023-02-22T18:10:13.773Z,100743.22
2023-02-22T18:15:08.562Z,100761.50
2023-02-22T18:20:02.743Z,100761.06
2023-02-22T18:25:00.875Z,100764.31
2023-02-22T18:29:55.538Z,100775.63
2023-02-22T18:34:50.633Z,100745.84
2023-02-22T18:39:43.896Z,100732.47
2023-02-22T18:44:37.940Z,100726.09
2023-02-22T18:49:31.738Z,100731.78
2023-02-22T18:54:24.477Z,100762.09
2023-02-22T18:59:17.469Z,100770.97
2023-02-22T19:04:10.439Z,100734.94
2023-02-22T19:09:08.125Z,100727.84
2023-02-22T19:14:01.336Z,100760.69
2023-02-22T19:18:57.803Z,100738.44
2023-02-22T19:23:52.090Z,100755.38
2023-02-22T19:28:46.644Z,100742.25
2023-02-22T19:33:38.815Z,100750.09
2023-02-22T19:38:33.098Z,100743.84
2023-02-22T19:43:25.363Z,100755.59
2023-02-22T19:48:19.883Z,100750.97
2023-02-22T19:53:14.567Z,100716.94
2023-02-22T19:58:08.591Z,100751.72
2023-02-22T20:03:22.651Z,100764.97
2023-02-22T20:08:15.835Z,100751.72
2023-02-22T20:13:12.921Z,100757.59
2023-02-22T20:18:07.111Z,100722.97
2023-02-22T20:22:59.769Z,100753.72
2023-02-22T20:27:56.998Z,100733.91
2023-02-22T20:32:50.779Z,100745.84
2023-02-22T20:37:44.205Z,100748.94
2023-02-22T20:42:36.795Z,100741.94
2023-02-22T20:47:29.140Z,100741.00
2023-02-22T20:52:22.418Z,100765.75
2023-02-22T20:57:15.580Z,100740.38
2023-02-22T21:02:10.716Z,100738.22
2023-02-22T21:07:03.389Z,100739.16
2023-02-22T21:11:57.121Z,100745.72
2023-02-22T21:16:52.089Z,100733.84
2023-02-22T21:21:45.114Z,100718.91
2023-02-22T21:26:38.225Z,100762.19
2023-02-22T21:31:31.872Z,100743.63
2023-02-22T21:36:27.469Z,100744.41
2023-02-22T21:41:22.305Z,100708.31
2023-02-22T21:46:15.091Z,100730.66
2023-02-22T21:51:14.827Z,100737.09
2023-02-22T21:56:07.771Z,100751.19
2023-02-22T22:01:08.202Z,100738.84
2023-02-22T22:06:02.055Z,100729.25
2023-02-22T22:10:58.154Z,100736.09
2023-02-22T22:15:51.892Z,100711.28
2023-02-22T22:20:45.833Z,100704.94
2023-02-22T22:25:38.649Z,100709.00
2023-02-22T22:30:31.843Z,100717.91
2023-02-22T22:35:24.318Z,100693.88
2023-02-22T22:40:18.293Z,100684.50
2023-02-22T22:45:14.315Z,100706.78
2023-02-22T22:50:11.367Z,100714.53
2023-02-22T22:55:05.707Z,100679.00
2023-02-22T23:00:00.445Z,100678.75
2023-02-22T23:04:52.598Z,100694.94
2023-02-22T23:09:45.475Z,100671.69
2023-02-22T23:14:44.065Z,100689.00
2023-02-22T23:19:38.584Z,100680.38
2023-02-22T23:24:33.130Z,100675.06
2023-02-22T23:29:27.819Z,100684.41
2023-02-22T23:34:24.086Z,100682.63
2023-02-22T23:39:20.745Z,100662.31
2023-02-22T23:44:17.721Z,100671.91
2023-02-22T23:49:11.954Z,100685.56
2023-02-22T23:54:06.459Z,100676.03
2023-02-22T23:59:01.013Z,100673.44
